Time;durP1;ratioP1;P1;durP2;ratioP2;P2;SDS_P1;SDS_P2;PMS_P1;PMS_P2;Temp;Humidity;BMP_temperature;BMP_pressure;BME280_temperature;BME280_humidity;BME280_pressure;Samples;Min_cycle;Max_cycle;Signal;HPM_P1;HPM_P2
2024/01/21 00:02:01;;;;;;;28.30;7.55;;;;;;;-3.71;100.00;100096.31;4484752;31;20091;-75
2024/01/21 00:04:30;;;;;;;17.77;7.55;;;;;;;-3.74;100.00;100089.50;4484418;31;20104;-75
2024/01/21 00:06:58;;;;;;;24.63;9.45;;;;;;;-3.73;100.00;100087.81;4484670;31;20236;-75
2024/01/21 00:09:27;;;;;;;16.80;7.18;;;;;;;-3.76;100.00;100102.31;4483068;32;20116;-75
2024/01/21 00:11:55;;;;;;;12.25;6.15;;;;;;;-3.75;100.00;100111.72;4484564;31;20492;-75
2024/01/21 00:14:22;;;;;;;15.63;6.95;;;;;;;-3.71;100.00;100096.31;4484525;31;20093;-75
2024/01/21 00:16:50;;;;;;;17.73;6.68;;;;;;;-3.80;100.00;100092.13;4484416;31;20104;-75
2024/01/21 00:19:17;;;;;;;22.30;6.68;;;;;;;-3.82;100.00;100089.59;4495106;31;20147;-75
2024/01/21 00:21:45;;;;;;;18.27;7.47;;;;;;;-3.84;100.00;100091.31;4499980;31;20118;-75
2024/01/21 00:24:15;;;;;;;16.67;7.68;;;;;;;-3.82;100.00;100084.47;4500258;31;20483;-75
2024/01/21 00:26:43;;;;;;;20.77;6.80;;;;;;;-3.80;100.00;100087.87;4500164;31;20129;-75
2024/01/21 00:29:10;;;;;;;16.50;6.60;;;;;;;-3.82;100.00;100094.69;4500101;31;20163;-75
2024/01/21 00:31:37;;;;;;;20.83;6.93;;;;;;;-3.81;100.00;100101.53;4484867;31;20119;-75
2024/01/21 00:34:05;;;;;;;15.95;6.07;;;;;;;-3.82;100.00;100099.81;4484161;32;20446;-75
2024/01/21 00:36:33;;;;;;;20.42;7.62;;;;;;;-3.81;100.00;100114.34;4484158;31;20410;-75
2024/01/21 00:39:02;;;;;;;19.77;7.00;;;;;;;-3.80;100.00;100117.72;4484444;31;20168;-75
2024/01/21 00:41:29;;;;;;;19.10;8.45;;;;;;;-3.80;100.00;100118.59;4484068;32;20081;-75
2024/01/21 00:43:57;;;;;;;18.80;7.80;;;;;;;-3.80;100.00;100116.03;4484196;31;20097;-75
2024/01/21 00:46:24;;;;;;;15.88;7.60;;;;;;;-3.81;100.00;100121.19;4484074;31;20088;-75
2024/01/21 00:48:52;;;;;;;23.92;8.32;;;;;;;-3.89;100.00;100125.50;4484251;31;20096;-75
2024/01/21 00:51:20;;;;;;;20.42;7.07;;;;;;;-3.88;100.00;100117.81;4483926;31;20084;-75
2024/01/21 00:53:47;;;;;;;14.60;6.97;;;;;;;-3.91;100.00;100117.81;4483894;31;20096;-76
2024/01/21 00:56:15;;;;;;;19.77;7.35;;;;;;;-3.89;100.00;100123.81;4484120;31;20109;-75
2024/01/21 00:58:43;;;;;;;19.25;8.23;;;;;;;-3.90;100.00;100132.34;4483909;31;20431;-75
2024/01/21 01:01:10;;;;;;;18.02;7.10;;;;;;;-3.87;100.00;100127.19;4485751;31;20097;-75
2024/01/21 01:03:44;;;;;;;16.52;7.32;;;;;;;-3.88;100.00;100120.38;4486054;31;20144;-75
2024/01/21 01:06:14;;;;;;;15.80;6.72;;;;;;;-3.94;100.00;100123.84;4485896;31;20076;-75
2024/01/21 01:08:42;;;;;;;17.65;6.93;;;;;;;-4.01;100.00;100118.75;4485797;31;20570;-75
2024/01/21 01:11:09;;;;;;;13.55;5.90;;;;;;;-4.04;100.00;100111.09;4485593;31;20092;-75
2024/01/21 01:13:37;;;;;;;13.07;5.80;;;;;;;-4.03;100.00;100107.69;4486124;31;20100;-75
2024/01/21 01:16:06;;;;;;;15.02;6.37;;;;;;;-3.99;100.00;100114.50;4485906;31;20131;-75
2024/01/21 01:18:34;;;;;;;12.27;6.70;;;;;;;-3.97;100.00;100125.56;4492073;31;20465;-76
2024/01/21 01:21:03;;;;;;;16.52;7.05;;;;;;;-3.94;100.00;100122.97;4501449;31;20089;-75
2024/01/21 01:23:31;;;;;;;14.65;6.20;;;;;;;-3.91;100.00;100128.06;4501544;31;20092;-75
2024/01/21 01:26:00;;;;;;;16.40;6.15;;;;;;;-3.93;100.00;100122.13;4501578;31;20092;-75
2024/01/21 01:28:28;;;;;;;14.65;6.18;;;;;;;-3.95;100.00;100137.50;4501465;31;20138;-75
2024/01/21 01:30:56;;;;;;;12.20;6.65;;;;;;;-3.91;100.00;100128.06;4490388;31;20096;-75
2024/01/21 01:33:24;;;;;;;15.90;6.20;;;;;;;-4.00;100.00;100125.59;4485786;31;20121;-75
2024/01/21 01:35:52;;;;;;;16.40;6.90;;;;;;;-3.99;100.00;100127.28;4485395;31;20144;-75
2024/01/21 01:38:20;;;;;;;13.60;7.20;;;;;;;-3.99;100.00;100127.28;4485753;32;20114;-75
2024/01/21 01:40:47;;;;;;;14.93;6.90;;;;;;;-4.01;100.00;100129.88;4485661;31;20089;-75
2024/01/21 01:43:17;;;;;;;11.85;5.35;;;;;;;-4.04;100.00;100134.12;4485589;31;20110;-75
2024/01/21 01:45:46;;;;;;;18.27;7.57;;;;;;;-4.05;100.00;100129.91;4485620;31;20123;-75
2024/01/21 01:48:13;;;;;;;19.02;6.22;;;;;;;-4.10;100.00;100120.53;4485687;31;20096;-75
2024/01/21 01:50:43;;;;;;;13.50;5.95;;;;;;;-4.12;100.00;100119.72;4484238;32;20386;-75
2024/01/21 01:53:11;;;;;;;11.85;6.00;;;;;;;-4.12;100.00;100117.16;4485598;32;20100;-75
2024/01/21 01:55:38;;;;;;;13.35;6.28;;;;;;;-4.13;100.00;100115.44;4485813;31;20104;-75
2024/01/21 01:58:06;;;;;;;16.27;6.97;;;;;;;-4.16;100.00;100130.81;4485706;31;20560;-75
2024/01/21 02:00:36;;;;;;;15.45;6.78;;;;;;;-4.16;100.00;100118.03;4484133;32;20538;-75
2024/01/21 02:03:04;;;;;;;25.20;6.80;;;;;;;-4.18;100.00;100118.91;4485638;31;20092;-75
2024/01/21 02:05:31;;;;;;;15.50;5.80;;;;;;;-4.20;100.00;100118.91;4485673;31;20114;-75
2024/01/21 02:07:59;;;;;;;13.25;5.68;;;;;;;-4.21;100.00;100121.47;4485648;31;20114;-75
2024/01/21 02:10:29;;;;;;;11.82;5.78;;;;;;;-4.23;100.00;100118.94;4484884;31;20155;-75
2024/01/21 02:12:57;;;;;;;12.30;5.60;;;;;;;-4.22;100.00;100115.53;4485382;31;20137;-75
2024/01/21 02:15:25;;;;;;;18.37;6.60;;;;;;;-4.21;100.00;100118.91;4485393;32;20092;-75
2024/01/21 02:17:55;;;;;;;14.13;6.57;;;;;;;-4.26;100.00;100124.06;4487256;31;20196;-75
2024/01/21 02:20:24;;;;;;;9.98;5.15;;;;;;;-4.20;100.00;100131.69;4501047;31;20442;-75
2024/01/21 02:22:57;;;;;;;12.55;5.70;;;;;;;-4.21;100.00;100126.59;4501304;31;20144;-75
2024/01/21 02:25:24;;;;;;;10.38;5.87;;;;;;;-4.19;100.00;100128.28;4500911;31;20104;-75
2024/01/21 02:27:52;;;;;;;13.00;5.97;;;;;;;-4.24;100.00;100114.66;4501432;31;20126;-75
2024/01/21 02:30:24;;;;;;;14.02;5.07;;;;;;;-4.26;100.00;100126.62;4493784;31;20466;-75
2024/01/21 02:32:52;;;;;;;10.90;4.45;;;;;;;-4.25;100.00;100127.47;4485111;31;20473;-75
2024/01/21 02:35:20;;;;;;;12.88;6.20;;;;;;;-4.25;100.00;100128.34;4485167;31;20190;-75
2024/01/21 02:37:48;;;;;;;13.43;5.35;;;;;;;-4.32;100.00;100131.78;4485307;31;20108;-75
2024/01/21 02:40:16;;;;;;;14.18;5.37;;;;;;;-4.30;100.00;100122.37;4485333;31;20570;-75
2024/01/21 02:42:43;;;;;;;11.25;5.50;;;;;;;-4.31;100.00;100116.44;4485385;31;20115;-75
2024/01/21 02:45:11;;;;;;;17.65;5.97;;;;;;;-4.33;100.00;100117.28;4485263;31;20108;-75
2024/01/21 02:47:39;;;;;;;13.02;5.78;;;;;;;-4.36;100.00;100115.63;4485279;31;20514;-75
2024/01/21 02:50:07;;;;;;;10.85;5.32;;;;;;;-4.37;100.00;100105.41;4485135;31;20574;-75
2024/01/21 02:52:34;;;;;;;13.57;5.40;;;;;;;-4.35;100.00;100113.91;4485133;31;20434;-75
2024/01/21 02:55:03;;;;;;;11.45;5.68;;;;;;;-4.35;100.00;100111.34;4485091;31;20088;-75
2024/01/21 02:57:31;;;;;;;12.93;5.68;;;;;;;-4.37;100.00;100113.91;4485154;31;20501;-75
2024/01/21 02:59:58;;;;;;;14.85;6.05;;;;;;;-4.34;100.00;100116.44;4483879;32;20501;-75
2024/01/21 03:02:26;;;;;;;11.75;4.93;;;;;;;-4.34;100.00;100125.84;4484890;31;20157;-75
2024/01/21 03:04:53;;;;;;;11.30;4.75;;;;;;;-4.32;100.00;100131.78;4485057;31;20119;-75
2024/01/21 03:07:21;;;;;;;9.45;4.90;;;;;;;-4.33;100.00;100128.37;4485050;31;20100;-75
2024/01/21 03:09:50;;;;;;;15.48;5.65;;;;;;;-4.31;100.00;100133.50;4483754;32;20107;-76
2024/01/21 03:12:18;;;;;;;19.73;5.53;;;;;;;-4.32;100.00;100134.34;4483718;32;20526;-75
2024/01/21 03:14:45;;;;;;;11.12;5.50;;;;;;;-4.33;100.00;100145.44;4485175;31;20122;-75
2024/01/21 03:17:15;;;;;;;10.65;5.60;;;;;;;-4.34;100.00;100157.38;4485074;31;20560;-75
2024/01/21 03:19:44;;;;;;;12.35;5.80;;;;;;;-4.36;100.00;100142.88;4498601;31;20156;-75
2024/01/21 03:22:11;;;;;;;19.00;5.07;;;;;;;-4.40;100.00;100151.47;4499963;31;20153;-75
2024/01/21 03:24:40;;;;;;;15.13;5.43;;;;;;;-4.46;100.00;100148.06;4500710;31;20095;-75
2024/01/21 03:27:07;;;;;;;11.48;4.18;;;;;;;-4.43;100.00;100151.47;4500689;31;20147;-75
2024/01/21 03:29:38;;;;;;;12.27;4.70;;;;;;;-4.47;100.00;100150.62;4498262;31;20117;-75
2024/01/21 03:32:06;;;;;;;9.35;4.78;;;;;;;-4.45;100.00;100154.06;4482852;31;20092;-75
2024/01/21 03:34:33;;;;;;;9.93;5.20;;;;;;;-4.48;100.00;100165.13;4481413;32;20114;-75
2024/01/21 03:37:01;;;;;;;11.95;5.45;;;;;;;-4.48;100.00;100154.91;4481537;31;20458;-75
2024/01/21 03:39:29;;;;;;;9.38;3.75;;;;;;;-4.50;100.00;100154.03;4484108;31;20088;-75
2024/01/21 03:41:56;;;;;;;8.43;3.35;;;;;;;-4.49;100.00;100153.19;4484701;31;20080;-75
2024/01/21 03:44:24;;;;;;;9.15;4.90;;;;;;;-4.43;100.00;100157.44;4484773;31;20092;-75
2024/01/21 03:46:51;;;;;;;14.40;5.97;;;;;;;-4.48;100.00;100152.34;4484757;31;20122;-75
2024/01/21 03:49:19;;;;;;;9.68;5.60;;;;;;;-4.45;100.00;100146.38;4484813;31;20617;-75
2024/01/21 03:51:47;;;;;;;17.90;5.75;;;;;;;-4.46;100.00;100155.72;4484902;31;20096;-75
2024/01/21 03:54:15;;;;;;;14.98;6.30;;;;;;;-4.49;100.00;100158.31;4484608;31;20160;-75
2024/01/21 03:56:43;;;;;;;11.07;4.55;;;;;;;-4.54;100.00;100159.19;4484796;31;20148;-75
2024/01/21 03:59:11;;;;;;;14.45;5.35;;;;;;;-4.51;100.00;100167.72;4484949;31;20100;-75
2024/01/21 04:01:43;;;;;;;16.60;5.05;;;;;;;-4.55;100.00;100173.69;4484892;31;20149;-75
2024/01/21 04:04:12;;;;;;;10.15;4.22;;;;;;;-4.63;100.00;100162.66;4484394;31;20088;-75
2024/01/21 04:06:43;;;;;;;15.73;5.47;;;;;;;-4.63;100.00;100160.09;4484914;32;20129;-75
2024/01/21 04:09:15;;;;;;;12.32;5.18;;;;;;;-4.58;100.00;100170.31;4484408;31;20573;-75
2024/01/21 04:11:43;;;;;;;9.38;4.05;;;;;;;-4.55;100.00;100177.97;4484637;31;20085;-75
2024/01/21 04:14:11;;;;;;;9.80;4.43;;;;;;;-4.51;100.00;100171.94;4484532;31;20097;-75
2024/01/21 04:16:39;;;;;;;14.27;6.05;;;;;;;-4.49;100.00;100173.66;4484466;31;20135;-75
2024/01/21 04:19:09;;;;;;;11.88;4.70;;;;;;;-4.55;100.00;100166.03;4494148;31;20126;-75
2024/01/21 04:21:37;;;;;;;16.23;5.30;;;;;;;-4.57;100.00;100165.19;4500072;31;20461;-75
2024/01/21 04:24:04;;;;;;;14.63;5.65;;;;;;;-4.57;100.00;100172.84;4500148;31;20422;-75
2024/01/21 04:26:32;;;;;;;10.70;5.18;;;;;;;-4.58;100.00;100173.72;4499996;31;20571;-75
2024/01/21 04:29:00;;;;;;;18.52;6.45;;;;;;;-4.56;100.00;100176.25;4500271;31;20111;-75
2024/01/21 04:31:27;;;;;;;13.95;5.28;;;;;;;-4.57;100.00;100180.53;4485760;31;20477;-75
2024/01/21 04:33:55;;;;;;;15.93;6.65;;;;;;;-4.51;100.00;100184.75;4483810;31;20421;-75
2024/01/21 04:36:22;;;;;;;9.90;5.05;;;;;;;-4.49;100.00;100178.78;4484145;31;20564;-75
2024/01/21 04:38:50;;;;;;;14.05;5.70;;;;;;;-4.46;100.00;100173.63;4484354;31;20134;-75
2024/01/21 04:41:18;;;;;;;9.38;4.28;;;;;;;-4.47;100.00;100171.97;4484332;31;20160;-75
2024/01/21 04:43:45;;;;;;;12.57;5.25;;;;;;;-4.48;100.00;100165.13;4484330;31;20092;-76
2024/01/21 04:46:13;;;;;;;9.50;5.10;;;;;;;-4.46;100.00;100172.81;4483867;32;20165;-75
2024/01/21 04:48:41;;;;;;;14.63;5.10;;;;;;;-4.47;100.00;100169.41;4484065;31;20118;-75
2024/01/21 04:51:10;;;;;;;26.08;5.87;;;;;;;-4.43;100.00;100169.37;4484170;31;20088;-75
2024/01/21 04:53:38;;;;;;;15.02;6.47;;;;;;;-4.46;100.00;100171.09;4483717;31;20096;-75
2024/01/21 04:56:15;;;;;;;10.43;5.10;;;;;;;-4.41;100.00;100172.78;4483928;31;20092;-75
2024/01/21 04:58:46;;;;;;;6.15;3.80;;;;;;;-4.36;100.00;100173.59;4483878;32;20156;-75
2024/01/21 05:01:15;;;;;;;12.77;5.47;;;;;;;-4.39;100.00;100173.59;4483955;31;20149;-75
2024/01/21 05:03:43;;;;;;;13.05;5.62;;;;;;;-4.38;100.00;100180.44;4483916;31;20096;-75
2024/01/21 05:06:11;;;;;;;11.95;5.80;;;;;;;-4.39;100.00;100184.72;4484115;31;20152;-76
2024/01/21 05:08:40;;;;;;;13.20;5.30;;;;;;;-4.41;100.00;100188.12;4483725;31;20163;-75
2024/01/21 05:11:08;;;;;;;12.27;5.55;;;;;;;-4.46;100.00;100189.00;4483710;32;20113;-75
2024/01/21 05:13:35;;;;;;;10.75;5.12;;;;;;;-4.44;100.00;100190.69;4483843;31;20120;-75
2024/01/21 05:16:24;;;;;;;15.02;6.18;;;;;;;-4.49;100.00;100196.69;4483786;31;20092;-75
2024/01/21 05:18:51;;;;;;;13.98;5.62;;;;;;;-4.48;100.00;100185.59;4491404;31;20100;-75
2024/01/21 05:21:20;;;;;;;12.52;5.45;;;;;;;-4.51;100.00;100189.84;4499334;31;20152;-75
2024/01/21 05:23:50;;;;;;;17.90;6.50;;;;;;;-4.56;100.00;100195.00;4499168;31;20092;-76
2024/01/21 05:26:18;;;;;;;13.32;4.90;;;;;;;-4.49;100.00;100198.38;4499494;31;20134;-75
2024/01/21 05:28:46;;;;;;;14.02;4.97;;;;;;;-4.43;100.00;100202.63;4499292;31;20096;-75
2024/01/21 05:31:14;;;;;;;10.55;5.53;;;;;;;-4.48;100.00;100211.16;4486478;31;20131;-75
2024/01/21 05:33:41;;;;;;;9.88;4.55;;;;;;;-4.43;100.00;100200.09;4483173;31;20096;-75
2024/01/21 05:36:09;;;;;;;20.33;6.12;;;;;;;-4.46;100.00;100209.44;4483362;31;20118;-75
2024/01/21 05:38:37;;;;;;;10.90;5.03;;;;;;;-4.41;100.00;100198.34;4482346;32;20123;-75
2024/01/21 05:41:04;;;;;;;10.15;4.97;;;;;;;-4.51;100.00;100207.75;4483373;31;20575;-75
2024/01/21 05:43:32;;;;;;;12.82;5.18;;;;;;;-4.47;100.00;100210.31;4483198;31;20092;-75
2024/01/21 05:45:59;;;;;;;8.95;5.18;;;;;;;-4.43;100.00;100203.47;4484191;32;20118;-75
2024/01/21 05:48:26;;;;;;;14.68;6.35;;;;;;;-4.35;100.00;100211.94;4485964;31;20100;-76
2024/01/21 05:50:55;;;;;;;12.52;5.80;;;;;;;-4.26;100.00;100212.78;4485566;31;20097;-75
2024/01/21 05:53:22;;;;;;;12.80;5.25;;;;;;;-4.23;100.00;100218.72;4485828;31;20160;-75
2024/01/21 05:55:49;;;;;;;14.90;5.70;;;;;;;-4.21;100.00;100221.25;4485415;31;20100;-75
2024/01/21 05:58:16;;;;;;;10.43;5.22;;;;;;;-4.26;100.00;100221.28;4485495;32;20104;-75
2024/01/21 06:00:44;;;;;;;10.98;5.40;;;;;;;-4.23;100.00;100230.66;4485818;31;20089;-75
2024/01/21 06:03:11;;;;;;;17.58;6.05;;;;;;;-4.19;100.00;100233.19;4485471;31;20088;-76
2024/01/21 06:05:39;;;;;;;14.20;5.45;;;;;;;-4.25;100.00;100238.34;4485211;31;20527;-75
2024/01/21 06:08:06;;;;;;;16.50;5.25;;;;;;;-4.20;100.00;100236.59;4485245;32;20114;-76
2024/01/21 06:10:33;;;;;;;12.23;4.97;;;;;;;-4.20;100.00;100238.31;4485405;31;20096;-75
2024/01/21 06:13:01;;;;;;;11.63;4.62;;;;;;;-4.13;100.00;100237.44;4485354;32;20187;-76
2024/01/21 06:15:27;;;;;;;12.65;5.00;;;;;;;-4.11;100.00;100244.22;4485343;31;20104;-76
2024/01/21 06:17:55;;;;;;;8.65;4.65;;;;;;;-4.13;100.00;100253.63;4487023;31;20142;-76
2024/01/21 06:20:23;;;;;;;12.05;5.55;;;;;;;-4.13;100.00;100252.78;4501138;31;20112;-76
2024/01/21 06:22:55;;;;;;;13.50;5.93;;;;;;;-4.25;100.00;100263.94;4499991;31;20122;-76
2024/01/21 06:25:22;;;;;;;14.40;5.78;;;;;;;-4.23;100.00;100264.78;4501143;31;20083;-76
2024/01/21 06:27:49;;;;;;;11.98;4.90;;;;;;;-4.28;100.00;100266.50;4500983;31;20596;-76
2024/01/21 06:30:19;;;;;;;16.87;6.40;;;;;;;-4.28;100.00;100264.78;4494317;31;20118;-76
2024/01/21 06:32:46;;;;;;;10.25;4.53;;;;;;;-4.26;100.00;100276.75;4485223;31;20084;-76
2024/01/21 06:35:28;;;;;;;13.02;5.80;;;;;;;-4.19;100.00;100283.53;4482874;31;75872;-75
2024/01/21 06:37:55;;;;;;;12.98;5.60;;;;;;;-4.18;100.00;100269.88;4485287;31;20115;-76
2024/01/21 06:40:23;;;;;;;14.43;5.40;;;;;;;-4.13;100.00;100274.13;4485319;31;20135;-75
2024/01/21 06:42:51;;;;;;;12.07;4.47;;;;;;;-4.07;100.00;100278.34;4485346;31;20097;-75
2024/01/21 06:45:19;;;;;;;15.10;5.50;;;;;;;-4.00;100.00;100282.56;4485178;32;20092;-76
2024/01/21 06:47:46;;;;;;;12.75;5.28;;;;;;;-3.92;100.00;100285.09;4485133;31;20080;-76
2024/01/21 06:50:15;;;;;;;12.37;6.20;;;;;;;-3.87;100.00;100279.97;4485193;32;20111;-75
2024/01/21 06:52:42;;;;;;;11.85;4.82;;;;;;;-3.88;100.00;100289.34;4485116;31;20435;-76
2024/01/21 06:55:10;;;;;;;14.80;6.22;;;;;;;-3.79;100.00;100270.50;4485052;31;20114;-76
2024/01/21 06:57:39;;;;;;;11.52;5.15;;;;;;;-3.72;100.00;100274.75;4483594;32;20161;-76
2024/01/21 07:00:11;;;;;;;11.65;5.35;;;;;;;-3.60;100.00;100278.94;4485039;31;20072;-76
2024/01/21 07:02:38;;;;;;;8.23;4.18;;;;;;;-3.48;100.00;100277.97;4484970;31;20458;-76
2024/01/21 07:05:10;;;;;;;25.23;5.28;;;;;;;-3.42;100.00;100285.63;4485251;32;20107;-76
2024/01/21 07:07:37;;;;;;;11.02;5.57;;;;;;;-3.33;100.00;100282.13;4485100;31;20619;-76
2024/01/21 07:10:09;;;;;;;17.80;6.50;;;;;;;-3.29;100.00;100286.38;4484960;31;20088;-76
2024/01/21 07:12:36;;;;;;;17.45;5.70;;;;;;;-3.24;100.00;100275.22;4485264;32;20162;-76
2024/01/21 07:15:04;;;;;;;23.90;11.95;;;;;;;-3.15;100.00;100278.56;4485081;31;20205;-76
2024/01/21 07:17:31;;;;;;;15.82;7.45;;;;;;;-3.20;100.00;100283.72;4483548;32;20092;-76
2024/01/21 07:19:58;;;;;;;13.30;5.93;;;;;;;-3.10;100.00;100285.34;4500086;31;20181;-76
2024/01/21 07:22:26;;;;;;;10.23;5.05;;;;;;;-3.03;100.00;100296.41;4500621;31;20096;-76
2024/01/21 07:24:54;;;;;;;13.60;5.55;;;;;;;-2.94;100.00;100293.75;4500611;31;20084;-76
2024/01/21 07:27:21;;;;;;;14.05;5.07;;;;;;;-2.87;100.00;100304.81;4500482;31;20159;-76
2024/01/21 07:29:49;;;;;;;20.08;6.55;;;;;;;-2.79;100.00;100304.72;4497105;31;20105;-76
2024/01/21 07:32:18;;;;;;;11.55;5.53;;;;;;;-2.76;100.00;100300.41;4484848;31;20481;-76
2024/01/21 07:34:45;;;;;;;14.60;6.15;;;;;;;-2.59;100.00;100301.97;4485006;32;20153;-76
2024/01/21 07:37:13;;;;;;;12.77;5.12;;;;;;;-2.54;100.00;100300.22;4484691;31;20178;-76
2024/01/21 07:39:41;;;;;;;13.07;5.65;;;;;;;-2.44;100.00;100300.94;4485076;31;20401;-76
2024/01/21 07:42:09;;;;;;;12.52;5.80;;;;;;;-2.36;100.00;100301.72;4484823;31;20469;-76
2024/01/21 07:44:37;;;;;;;12.73;5.62;;;;;;;-2.34;100.00;100305.94;4484752;31;20092;-76
2024/01/21 07:47:04;;;;;;;13.80;5.22;;;;;;;-2.19;100.00;100302.38;4484933;31;20463;-76
2024/01/21 07:49:32;;;;;;;10.70;4.93;;;;;;;-2.18;100.00;100293.81;4484769;31;20136;-76
2024/01/21 07:52:00;;;;;;;14.07;5.37;;;;;;;-2.06;100.00;100297.94;4484885;31;20432;-76
2024/01/21 07:54:31;;;;;;;13.98;4.82;;;;;;;-1.81;100.00;100297.59;4484842;31;20106;-76
2024/01/21 07:56:59;;;;;;;9.63;4.65;;;;;;;-1.72;100.00;100297.47;4484591;31;20510;-76
2024/01/21 07:59:27;;;;;;;11.38;5.25;;;;;;;-1.59;98.86;100302.44;4485009;31;20119;-76
2024/01/21 08:01:55;;;;;;;9.32;4.20;;;;;;;-1.43;97.80;100309.03;4484590;31;20490;-76
2024/01/21 08:04:22;;;;;;;12.07;5.37;;;;;;;-1.40;96.80;100303.84;4484743;31;20126;-76
2024/01/21 08:06:49;;;;;;;13.98;5.35;;;;;;;-1.15;96.77;100303.44;4484579;31;20795;-76
2024/01/21 08:09:16;;;;;;;16.05;6.25;;;;;;;-0.99;95.24;100307.47;4484066;31;20143;-76
2024/01/21 08:11:47;;;;;;;16.85;5.40;;;;;;;-1.11;95.16;100305.94;4484807;31;20088;-76
2024/01/21 08:14:18;;;;;;;10.88;5.45;;;;;;;-1.04;94.72;100316.16;4484524;31;20541;-76
2024/01/21 08:16:46;;;;;;;14.65;6.15;;;;;;;-1.05;94.70;100322.16;4484654;31;20092;-76
2024/01/21 08:19:15;;;;;;;14.23;5.78;;;;;;;-1.09;94.16;100317.06;4494688;31;20104;-76
2024/01/21 08:21:44;;;;;;;14.77;5.62;;;;;;;-1.12;95.42;100324.84;4500327;31;20107;-76
2024/01/21 08:24:12;;;;;;;13.62;5.62;;;;;;;-1.07;95.61;100327.34;4500293;31;20148;-76
2024/01/21 08:26:41;;;;;;;15.18;5.68;;;;;;;-1.01;95.14;100331.53;4499938;31;20114;-76
2024/01/21 08:29:09;;;;;;;10.48;5.78;;;;;;;-0.98;94.26;100331.50;4500547;31;20118;-76
2024/01/21 08:31:43;;;;;;;16.55;6.93;;;;;;;-1.04;93.63;100335.00;4484656;31;20097;-76
2024/01/21 08:34:12;;;;;;;15.00;5.40;;;;;;;-0.97;93.82;100353.75;4484394;31;20563;-76
2024/01/21 08:36:40;;;;;;;13.13;5.65;;;;;;;-0.78;94.17;100342.28;4484110;31;20108;-76
2024/01/21 08:39:09;;;;;;;12.30;5.87;;;;;;;-0.59;91.87;100347.94;4484448;31;20131;-76
2024/01/21 08:41:37;;;;;;;16.62;6.82;;;;;;;-0.50;90.99;100357.25;4484234;31;20119;-76
2024/01/21 08:44:07;;;;;;;13.88;6.07;;;;;;;-0.56;89.53;100360.78;4484248;31;20096;-76
2024/01/21 08:46:35;;;;;;;11.30;5.82;;;;;;;-0.40;90.42;100360.47;4484097;31;20526;-76
2024/01/21 08:49:06;;;;;;;16.15;5.90;;;;;;;-0.35;88.28;100368.97;4484115;31;20088;-76
2024/01/21 08:51:34;;;;;;;16.83;5.93;;;;;;;-0.24;87.99;100372.19;4484106;31;20851;-76
2024/01/21 08:54:01;;;;;;;12.32;5.60;;;;;;;-0.12;88.46;100371.12;4484036;32;20628;-76
2024/01/21 08:56:29;;;;;;;13.45;5.37;;;;;;;-0.12;88.12;100380.56;4483904;31;20124;-76
2024/01/21 08:58:56;;;;;;;13.23;6.25;;;;;;;0.10;87.54;100386.97;4483922;32;20089;-76
2024/01/21 09:01:24;;;;;;;21.35;6.43;;;;;;;0.11;86.29;100388.69;4482517;32;20104;-76
2024/01/21 09:03:52;;;;;;;12.63;5.82;;;;;;;0.40;87.07;100386.41;4483866;31;20096;-76
2024/01/21 09:06:19;;;;;;;14.52;5.78;;;;;;;0.29;85.37;100384.88;4483966;31;20095;-76
2024/01/21 09:08:51;;;;;;;17.23;6.78;;;;;;;0.27;85.79;100388.38;4483565;32;20168;-76
2024/01/21 09:11:20;;;;;;;16.73;7.05;;;;;;;0.39;85.62;100388.09;4483936;31;20096;-76
2024/01/21 09:13:47;;;;;;;13.70;5.97;;;;;;;0.48;84.49;100402.53;4483632;31;20168;-76
2024/01/21 09:16:16;;;;;;;15.25;6.10;;;;;;;0.62;84.71;100403.09;4483747;31;20571;-76
2024/01/21 09:18:51;;;;;;;13.55;6.50;;;;;;;0.70;83.77;100398.59;4491395;31;20096;-75
2024/01/21 09:21:18;;;;;;;12.82;6.62;;;;;;;0.85;82.94;100396.59;4500887;31;20343;-75
2024/01/21 09:24:03;;;;;;;17.15;7.12;;;;;;;1.03;84.20;100405.59;4501618;31;20111;-75
2024/01/21 09:26:32;;;;;;;12.50;6.68;;;;;;;0.99;83.72;100402.25;4501512;31;20100;-75
2024/01/21 09:28:59;;;;;;;18.60;7.43;;;;;;;1.05;84.69;100403.84;4501489;31;20136;-75
2024/01/21 09:31:27;;;;;;;15.73;6.72;;;;;;;1.16;84.50;100399.25;4487159;31;20115;-75
2024/01/21 09:33:56;;;;;;;15.18;5.85;;;;;;;1.36;83.18;100401.38;4485783;31;20091;-75
2024/01/21 09:36:24;;;;;;;14.23;6.70;;;;;;;1.47;83.28;100390.78;4485623;32;20145;-75
2024/01/21 09:39:01;;;;;;;13.62;6.40;;;;;;;1.44;81.19;100398.59;4485930;31;20076;-75
2024/01/21 09:41:33;;;;;;;16.45;6.43;;;;;;;1.50;79.45;100401.03;4485645;31;20085;-75
2024/01/21 09:44:00;;;;;;;20.27;6.85;;;;;;;1.55;79.97;100399.16;4485734;31;20171;-75
2024/01/21 09:46:28;;;;;;;16.12;6.50;;;;;;;1.60;80.48;100399.03;4484258;32;20139;-75
2024/01/21 09:49:00;;;;;;;17.20;6.40;;;;;;;1.41;79.46;100406.44;4485459;31;20109;-75
2024/01/21 09:51:29;;;;;;;19.80;7.45;;;;;;;1.37;82.57;100404.81;4485596;31;20154;-75
2024/01/21 09:53:57;;;;;;;18.45;7.35;;;;;;;1.59;82.70;100403.37;4485646;31;20480;-75
2024/01/21 09:56:25;;;;;;;14.90;6.05;;;;;;;1.68;81.45;100404.00;4485516;32;20374;-74
2024/01/21 09:58:52;;;;;;;15.48;6.78;;;;;;;1.61;77.10;100413.66;4485568;31;20153;-74
2024/01/21 10:01:21;;;;;;;22.67;6.50;;;;;;;1.66;78.14;100405.78;4485579;31;20547;-74
2024/01/21 10:03:49;;;;;;;14.90;6.50;;;;;;;1.61;76.78;100410.25;4484355;32;20104;-75
2024/01/21 10:06:21;;;;;;;14.48;6.50;;;;;;;1.69;78.63;100400.53;4485540;31;20084;-75
2024/01/21 10:08:50;;;;;;;15.05;6.65;;;;;;;1.72;78.83;100410.78;4485376;31;20470;-75
2024/01/21 10:11:17;;;;;;;21.05;9.80;;;;;;;1.82;79.62;100406.22;4485495;31;20115;-75
2024/01/21 10:13:44;;;;;;;24.60;10.55;;;;;;;2.06;81.14;100404.69;4485837;31;20114;-75
2024/01/21 10:16:14;;;;;;;29.45;9.95;;;;;;;2.09;83.19;100414.94;4485470;31;20159;-75
2024/01/21 10:18:46;;;;;;;28.92;12.95;;;;;;;2.26;81.94;100409.34;4491915;31;20481;-75
2024/01/21 10:21:18;;;;;;;25.37;12.00;;;;;;;2.26;85.86;100407.59;4501187;31;20115;-75
2024/01/21 10:23:48;;;;;;;29.73;13.32;;;;;;;1.88;88.41;100404.34;4501118;31;20463;-75
2024/01/21 10:26:16;;;;;;;29.83;12.32;;;;;;;1.89;89.52;100402.59;4501448;31;20083;-75
2024/01/21 10:28:44;;;;;;;24.40;12.48;;;;;;;1.95;90.69;100402.41;4500782;31;20089;-75
2024/01/21 10:31:13;;;;;;;35.13;13.05;;;;;;;2.20;86.79;100397.41;4488245;31;20162;-75
2024/01/21 10:33:44;;;;;;;22.33;11.88;;;;;;;2.03;86.91;100409.97;4485123;31;20172;-75
2024/01/21 10:36:12;;;;;;;21.87;11.35;;;;;;;2.01;84.78;100401.41;4485076;31;20152;-75
2024/01/21 10:38:48;;;;;;;20.20;8.18;;;;;;;2.03;84.29;100399.63;4483856;32;20157;-75
2024/01/21 10:41:25;;;;;;;19.25;8.52;;;;;;;1.89;80.80;100402.59;4485103;32;20158;-75
2024/01/21 10:43:55;;;;;;;21.15;7.82;;;;;;;1.70;80.41;100402.25;4483900;32;20096;-75
2024/01/21 10:46:25;;;;;;;19.45;7.30;;;;;;;1.78;78.20;100408.88;4483856;32;20122;-75
2024/01/21 10:48:55;;;;;;;17.00;7.60;;;;;;;1.63;78.50;100405.88;4485088;31;20141;-75
2024/01/21 10:51:23;;;;;;;17.92;8.80;;;;;;;1.91;77.65;100406.84;4485162;31;20104;-75
2024/01/21 10:53:52;;;;;;;18.08;8.90;;;;;;;1.83;79.38;100403.59;4485278;31;20143;-75
2024/01/21 10:56:20;;;;;;;21.25;9.38;;;;;;;1.64;79.28;100405.00;4485085;31;20096;-75
2024/01/21 10:58:49;;;;;;;16.92;8.73;;;;;;;1.59;78.28;100408.53;4485008;31;20088;-75
2024/01/21 11:01:23;;;;;;;20.02;8.32;;;;;;;1.75;79.11;100403.78;4483966;32;20153;-75
2024/01/21 11:04:07;;;;;;;19.45;8.35;;;;;;;1.92;78.79;100399.91;4483820;32;20553;-76
2024/01/21 11:06:34;;;;;;;21.37;8.00;;;;;;;2.13;80.78;100398.47;4485468;31;20088;-76
2024/01/21 11:09:03;;;;;;;16.77;7.78;;;;;;;2.07;78.81;100406.41;4484753;31;20096;-76
2024/01/21 11:11:44;;;;;;;20.77;8.65;;;;;;;2.15;80.24;100404.47;4483566;31;20130;-76
2024/01/21 11:14:31;;;;;;;20.27;8.73;;;;;;;2.24;79.90;100411.97;4486195;31;20087;-76
2024/01/21 11:17:00;;;;;;;17.75;8.10;;;;;;;2.17;78.32;100404.44;4485203;31;20147;-76
2024/01/21 11:19:38;;;;;;;17.52;9.02;;;;;;;2.18;77.35;100413.84;4486956;31;20123;-76
2024/01/21 11:22:09;;;;;;;24.15;8.27;;;;;;;2.18;76.68;100408.69;4485863;31;20096;-76